Powder Springs, Georgia
Current Conditions -  °F | °C
As of 10:58 AM on Friday 24 Oct 2014 (Local Time) from KMGE Reporting Station
Broken Clouds Broken Clouds  
Wind Chill: 60°   Ceiling: 25000
Heat Index: 60°   Visibility: 10mi
Dew Point: 48°   Wind: 3mph
Humidity: 65%   Direction: 360°N
Pressure: 30.08"   Gusts: NA
Location:  33.86°N, 84.68°W
Report Text: KMGE 241458Z 36003KT 10SM FEW170 BKN250 16/09 A3008 RMK AO2A SLP185 T01550090 50008 $
Loading
Personal Weather Stations






























Interactive Weather Map
Tropical Storm Tracking
New forecast layout! Learn more

10-Day Weather Forecast

Advertisements
Track Severe Weather on mobile